< < Back
Terminal Aerodrome Forecast


Current Version              Previous Versions:   1  2  3  4  5  6  7  8  9  

Terminal Aerodrome Forecast

928
FTUS42 KJAX 241700
TAFGNV
TAF
KGNV 241720Z 2418/2518 25010KT P6SM VCTS SCT040CB
     FM250000 24002KT P6SM SCT250
      TEMPO 2507/2511 5SM BR=

Latest METAR

388
SAUS70 KWBC 250100 RRN
MTRGNV
METAR KGNV 250053Z 26012KT 10SM CLR 28/22 A3000 RMK AO2 SLP155
T02830222


USA.gov is the U.S. government's official web portal to all federal, state and local government web resources and services.